createdAt,value
2022-11-23T00:01:34.643Z,98926.44
2022-11-23T00:04:36.265Z,98924.22
2022-11-23T00:07:37.936Z,98920.03
2022-11-23T00:10:39.691Z,98919.28
2022-11-23T00:13:42.071Z,98921.75
2022-11-23T00:16:45.106Z,98918.75
2022-11-23T00:19:46.773Z,98923.97
2022-11-23T00:22:48.486Z,98925.91
2022-11-23T00:25:50.251Z,98929.06
2022-11-23T00:28:51.958Z,98926.72
2022-11-23T00:31:54.948Z,98931.78
2022-11-23T00:34:56.541Z,98934.69
2022-11-23T00:37:58.207Z,98932.84
2022-11-23T00:41:01.830Z,98944.19
2022-11-23T00:44:03.816Z,98945.25
2022-11-23T00:47:06.857Z,98949.28
2022-11-23T00:50:09.958Z,98945.91
2022-11-23T00:53:11.642Z,98949.72
2022-11-23T00:56:13.841Z,98959.22
2022-11-23T00:59:15.932Z,98957.91
2022-11-23T01:02:18.910Z,98955.69
2022-11-23T01:05:20.620Z,98944.59
2022-11-23T01:08:22.256Z,98950.63
2022-11-23T01:11:26.051Z,98955.69
2022-11-23T01:14:28.464Z,98946.31
2022-11-23T01:17:31.910Z,98956.50
2022-11-23T01:20:34.956Z,98960.16
2022-11-23T01:23:36.608Z,98957.16
2022-11-23T01:26:38.761Z,98955.44
2022-11-23T01:29:40.397Z,98952.69
2022-11-23T01:32:43.366Z,98953.88
2022-11-23T01:35:46.139Z,98958.47
2022-11-23T01:38:48.504Z,98951.41
2022-11-23T01:41:50.168Z,98948.66
2022-11-23T01:44:52.849Z,98954.13
2022-11-23T01:47:55.824Z,98956.09
2022-11-23T01:51:00.455Z,98945.78
2022-11-23T01:54:05.527Z,98957.00
2022-11-23T01:57:09.421Z,98951.41
2022-11-23T02:00:13.464Z,98950.88
2022-11-23T02:03:17.876Z,98951.00
2022-11-23T02:06:21.334Z,98955.47
2022-11-23T02:09:23.280Z,98956.75
2022-11-23T02:12:25.660Z,98955.34
2022-11-23T02:15:27.323Z,98953.75
2022-11-23T02:18:32.879Z,98956.59
2022-11-23T02:21:34.655Z,98950.84
2022-11-23T02:24:42.108Z,98963.78
2022-11-23T02:27:47.600Z,98960.41
2022-11-23T02:30:51.701Z,98958.84
2022-11-23T02:33:55.557Z,98955.56
2022-11-23T02:36:57.789Z,98961.06
2022-11-23T02:40:03.003Z,98944.72
2022-11-23T02:43:10.331Z,98949.97
2022-11-23T02:46:13.236Z,98952.31
2022-11-23T02:49:14.962Z,98945.63
2022-11-23T02:52:17.975Z,98940.56
2022-11-23T02:55:20.273Z,98933.09
2022-11-23T02:58:23.338Z,98936.78
2022-11-23T03:01:25.626Z,98944.72
2022-11-23T03:04:28.128Z,98942.25
2022-11-23T03:07:30.114Z,98938.59
2022-11-23T03:10:34.026Z,98944.59
2022-11-23T03:13:37.533Z,98943.41
2022-11-23T03:16:39.356Z,98936.25
2022-11-23T03:19:41.696Z,98932.97
2022-11-23T03:22:45.727Z,98935.72
2022-11-23T03:25:55.829Z,98944.97
2022-11-23T03:29:00.137Z,98946.81
2022-11-23T03:32:05.178Z,98942.91
2022-11-23T03:35:08.265Z,98945.09
2022-11-23T03:38:18.258Z,98941.84
2022-11-23T03:41:19.927Z,98945.53
2022-11-23T03:44:28.702Z,98948.25
2022-11-23T03:47:30.624Z,98945.41
2022-11-23T03:50:32.499Z,98943.56
2022-11-23T03:53:34.176Z,98940.94
2022-11-23T03:56:35.964Z,98937.56
2022-11-23T03:59:39.257Z,98938.09
2022-11-23T04:02:42.440Z,98945.91
2022-11-23T04:06:04.212Z,98936.91
2022-11-23T04:09:17.831Z,98945.41
2022-11-23T04:13:27.997Z,98945.41
2022-11-23T04:16:31.358Z,98949.56
2022-11-23T04:19:33.403Z,98947.72
2022-11-23T04:22:35.291Z,98944.47
2022-11-23T04:25:36.981Z,98943.56
2022-11-23T04:28:38.841Z,98938.34
2022-11-23T04:31:41.954Z,98945.00
2022-11-23T04:34:47.571Z,98939.63
2022-11-23T04:37:49.527Z,98932.19
2022-11-23T04:40:52.374Z,98937.28
2022-11-23T04:43:55.158Z,98937.53
2022-11-23T04:46:59.725Z,98929.97
2022-11-23T04:50:01.567Z,98938.06
2022-11-23T04:53:04.580Z,98925.13
2022-11-23T04:56:13.862Z,98928.78
2022-11-23T04:59:16.810Z,98934.53
2022-11-23T05:02:20.082Z,98935.56
2022-11-23T05:05:24.361Z,98933.63
2022-11-23T05:08:26.337Z,98935.19
2022-11-23T05:11:48.859Z,98929.19
2022-11-23T05:14:50.630Z,98932.59
2022-11-23T05:18:06.746Z,98935.06
2022-11-23T05:21:09.318Z,98932.06
2022-11-23T05:24:11.208Z,98933.22
2022-11-23T05:27:17.932Z,98928.25
2022-11-23T05:30:20.536Z,98932.59
2022-11-23T05:33:23.616Z,98936.91
2022-11-23T05:36:25.348Z,98931.28
2022-11-23T05:39:27.171Z,98933.34
2022-11-23T05:42:29.151Z,98928.25
2022-11-23T05:45:35.472Z,98933.63
2022-11-23T05:48:39.254Z,98937.56
2022-11-23T05:51:45.630Z,98924.63
2022-11-23T05:54:47.391Z,98930.38
2022-11-23T05:57:49.950Z,98939.34
2022-11-23T06:00:51.691Z,98942.66
2022-11-23T06:03:55.155Z,98937.44
2022-11-23T06:07:00.879Z,98940.16
2022-11-23T06:10:08.843Z,98935.47
2022-11-23T06:13:14.374Z,98938.09
2022-11-23T06:16:16.488Z,98944.59
2022-11-23T06:19:32.435Z,98950.34
2022-11-23T06:22:34.424Z,98950.34
2022-11-23T06:25:40.557Z,98951.94
2022-11-23T06:28:50.528Z,98952.31
2022-11-23T06:31:54.429Z,98954.66
2022-11-23T06:35:00.763Z,98951.41
2022-11-23T06:38:05.557Z,98957.28
2022-11-23T06:41:07.915Z,98954.00
2022-11-23T06:44:09.930Z,98958.69
2022-11-23T06:47:20.764Z,98956.09
2022-11-23T06:50:27.551Z,98951.94
2022-11-23T06:53:30.115Z,98954.78
2022-11-23T06:56:36.687Z,98957.16
2022-11-23T06:59:43.170Z,98965.66
2022-11-23T07:02:52.168Z,98966.41
2022-11-23T07:05:57.025Z,98975.16
2022-11-23T07:09:02.881Z,98976.47
2022-11-23T07:12:19.550Z,98982.59
2022-11-23T07:15:21.271Z,98979.34
2022-11-23T07:18:25.527Z,98974.09
2022-11-23T07:21:33.798Z,98977.53
2022-11-23T07:24:39.670Z,98970.06
2022-11-23T07:27:43.613Z,98977.78
2022-11-23T07:30:45.373Z,98979.59
2022-11-23T07:33:48.377Z,98983.41
2022-11-23T07:36:52.753Z,98993.72
2022-11-23T07:39:58.499Z,98990.84
2022-11-23T07:43:05.786Z,98990.72
2022-11-23T07:46:07.394Z,98999.47
2022-11-23T07:49:09.051Z,99000.53
2022-11-23T07:52:12.174Z,98992.81
2022-11-23T07:55:13.874Z,98999.72
2022-11-23T07:58:15.556Z,98996.84
2022-11-23T08:01:18.473Z,99002.59
2022-11-23T08:04:20.258Z,99003.13
2022-11-23T08:07:23.320Z,99018.53
2022-11-23T08:10:25.264Z,99001.56
2022-11-23T08:13:27.022Z,99007.81
2022-11-23T08:16:28.755Z,98999.97
2022-11-23T08:19:30.397Z,98995.53
2022-11-23T08:22:33.412Z,98991.34
2022-11-23T08:25:35.026Z,98996.16
2022-11-23T08:28:38.633Z,98997.75
2022-11-23T08:31:40.294Z,99006.50
2022-11-23T08:34:42.893Z,98994.09
2022-11-23T08:37:45.837Z,98992.66
2022-11-23T08:40:47.477Z,98992.91
2022-11-23T08:43:49.409Z,98999.44
2022-11-23T08:46:51.143Z,99004.78
2022-11-23T08:49:52.819Z,98995.63
2022-11-23T08:52:56.875Z,99004.50
2022-11-23T08:56:00.569Z,98998.50
2022-11-23T08:59:02.198Z,99003.63
2022-11-23T09:02:03.823Z,98998.50
2022-11-23T09:05:07.476Z,98999.75
2022-11-23T09:08:10.561Z,99007.50
2022-11-23T09:11:14.003Z,99007.72
2022-11-23T09:14:15.851Z,99011.53
2022-11-23T09:17:17.486Z,99012.28
2022-11-23T09:20:19.357Z,99011.34
2022-11-23T09:23:22.652Z,99016.69
2022-11-23T09:26:24.438Z,99015.56
2022-11-23T09:29:26.618Z,99008.72
2022-11-23T09:32:28.341Z,99015.50
2022-11-23T09:35:29.956Z,99011.28
2022-11-23T09:38:55.136Z,99019.88
2022-11-23T09:42:13.325Z,99015.28
2022-11-23T09:45:22.637Z,99023.06
2022-11-23T09:48:41.295Z,99016.16
2022-11-23T09:51:44.558Z,99019.69
2022-11-23T09:54:49.965Z,99005.59
2022-11-23T09:58:00.578Z,99001.06
2022-11-23T10:01:05.244Z,99006.59
2022-11-23T10:04:11.007Z,98998.16
2022-11-23T10:07:29.264Z,99003.91
2022-11-23T10:10:45.019Z,99002.00
2022-11-23T10:14:02.665Z,99001.69
2022-11-23T10:17:12.962Z,99006.59
2022-11-23T10:20:29.152Z,99003.41
2022-11-23T10:23:43.566Z,98997.28
2022-11-23T10:26:48.754Z,99002.66
2022-11-23T10:29:52.524Z,98979.28
2022-11-23T10:33:00.574Z,98988.63
2022-11-23T10:36:02.385Z,98985.00
2022-11-23T10:39:16.405Z,98981.00
2022-11-23T10:42:24.471Z,98981.88
2022-11-23T10:45:27.919Z,98981.13
2022-11-23T10:48:35.089Z,98981.88
2022-11-23T10:51:37.870Z,98973.56
2022-11-23T10:54:52.923Z,98976.28
2022-11-23T10:57:56.733Z,98972.72
2022-11-23T11:01:03.932Z,98965.97
2022-11-23T11:04:22.823Z,98962.44
2022-11-23T11:07:28.469Z,98961.09
2022-11-23T11:10:39.421Z,98964.44
2022-11-23T11:13:44.398Z,98961.09
2022-11-23T11:16:49.564Z,98959.72
2022-11-23T11:19:51.242Z,98946.97
2022-11-23T11:22:54.050Z,98947.13
2022-11-23T11:26:09.032Z,98939.16
2022-11-23T11:29:33.965Z,98950.69
2022-11-23T11:32:49.134Z,98936.44
2022-11-23T11:35:53.768Z,98936.75
2022-11-23T11:39:15.387Z,98932.88
2022-11-23T11:42:22.483Z,98926.72
2022-11-23T11:45:29.146Z,98918.53
2022-11-23T11:48:36.145Z,98920.16
2022-11-23T11:51:41.613Z,98906.19
2022-11-23T11:54:49.931Z,98902.75
2022-11-23T11:57:55.977Z,98902.13
2022-11-23T12:01:08.956Z,98903.00
2022-11-23T12:04:17.107Z,98904.19
2022-11-23T12:07:26.332Z,98896.66
2022-11-23T12:10:33.986Z,98892.44
2022-11-23T12:13:38.843Z,98885.69
2022-11-23T12:16:59.285Z,98889.69
2022-11-23T12:20:20.104Z,98887.09
2022-11-23T12:23:34.607Z,98878.47
2022-11-23T12:26:46.895Z,98876.38
2022-11-23T12:30:03.370Z,98867.53
2022-11-23T12:33:27.553Z,98869.75
2022-11-23T12:36:51.660Z,98863.88
2022-11-23T12:40:08.331Z,98864.09
2022-11-23T12:43:14.500Z,98866.34
2022-11-23T12:46:21.988Z,98871.66
2022-11-23T12:49:39.163Z,98871.03
2022-11-23T12:52:56.715Z,98867.44
2022-11-23T12:56:09.397Z,98859.19
2022-11-23T12:59:13.342Z,98867.38
2022-11-23T13:02:44.646Z,98868.97
2022-11-23T13:06:36.820Z,98855.31
2022-11-23T13:10:01.341Z,98849.78
2022-11-23T13:13:20.673Z,98840.75
2022-11-23T13:16:33.651Z,98846.06
2022-11-23T13:19:50.944Z,98835.84
2022-11-23T13:22:53.140Z,98835.69
2022-11-23T13:26:15.297Z,98827.31
2022-11-23T13:30:00.981Z,98827.31
2022-11-23T13:33:23.625Z,98832.44
2022-11-23T13:37:11.612Z,98834.00
2022-11-23T13:40:06.002Z,98818.94
2022-11-23T13:43:16.044Z,98816.56
2022-11-23T13:46:28.749Z,98804.00
2022-11-23T13:49:42.483Z,98787.44
2022-11-23T13:52:49.123Z,98790.13
2022-11-23T13:55:53.291Z,98779.50
2022-11-23T13:58:58.872Z,98778.91
2022-11-23T14:02:27.187Z,98782.97
2022-11-23T14:05:55.920Z,98771.53
2022-11-23T14:09:03.386Z,98768.72
2022-11-23T14:12:14.146Z,98761.53
2022-11-23T14:15:20.117Z,98749.78
2022-11-23T14:18:45.822Z,98762.03
2022-11-23T14:22:01.323Z,98748.19
2022-11-23T14:25:23.752Z,98751.19
2022-11-23T14:28:42.024Z,98742.09
2022-11-23T14:31:56.217Z,98737.78
2022-11-23T14:35:28.259Z,98725.41
2022-11-23T14:38:49.993Z,98726.50
2022-11-23T14:41:56.300Z,98731.84
2022-11-23T14:45:03.303Z,98725.53
2022-11-23T14:48:22.828Z,98724.16
2022-11-23T14:51:28.617Z,98728.91
2022-11-23T14:54:31.291Z,98735.00
2022-11-23T14:57:40.671Z,98736.56
2022-11-23T15:00:43.801Z,98749.63
2022-11-23T15:03:56.322Z,98745.22
2022-11-23T15:07:02.759Z,98756.75
2022-11-23T15:10:12.298Z,98749.25
2022-11-23T15:13:42.836Z,98744.00
2022-11-23T15:16:44.681Z,98741.94
2022-11-23T15:19:55.596Z,98749.44
2022-11-23T15:22:57.329Z,98741.91
2022-11-23T15:26:02.462Z,98748.72
2022-11-23T15:29:04.370Z,98756.25
2022-11-23T15:32:30.491Z,98755.19
2022-11-23T15:35:36.503Z,98761.47
2022-11-23T15:38:38.485Z,98760.00
2022-11-23T15:41:40.294Z,98768.22
2022-11-23T15:44:44.947Z,98769.63
2022-11-23T15:47:49.218Z,98764.41
2022-11-23T15:50:54.347Z,98772.66
2022-11-23T15:53:59.154Z,98769.19
2022-11-23T15:57:02.234Z,98766.00
2022-11-23T16:00:06.093Z,98769.75
2022-11-23T16:03:33.444Z,98774.25
2022-11-23T16:06:38.229Z,98774.06
2022-11-23T16:09:51.110Z,98770.28
2022-11-23T16:12:55.448Z,98777.25
2022-11-23T16:15:59.967Z,98774.44
2022-11-23T16:19:02.235Z,98775.16
2022-11-23T16:22:07.829Z,98778.03
2022-11-23T16:25:28.230Z,98785.69
2022-11-23T16:28:31.929Z,98789.78
2022-11-23T16:31:38.052Z,98796.50
2022-11-23T16:34:41.654Z,98806.06
2022-11-23T16:37:44.714Z,98801.44
2022-11-23T16:40:49.818Z,98805.59
2022-11-23T16:43:53.969Z,98815.53
2022-11-23T16:46:55.617Z,98824.66
2022-11-23T16:53:19.627Z,98832.16
2022-11-23T16:56:24.072Z,98833.41
2022-11-23T16:59:25.858Z,98839.66
2022-11-23T17:02:27.694Z,98848.91
2022-11-23T17:05:29.406Z,98858.84
2022-11-23T17:08:32.410Z,98862.34
2022-11-23T17:11:37.474Z,98870.06
2022-11-23T17:14:39.742Z,98886.09
2022-11-23T17:17:41.361Z,98895.72
2022-11-23T17:20:43.310Z,98904.16
2022-11-23T17:23:46.860Z,98911.53
2022-11-23T17:26:53.042Z,98920.66
2022-11-23T17:29:58.906Z,98920.97
2022-11-23T17:33:00.642Z,98939.84
2022-11-23T17:36:02.318Z,98943.97
2022-11-23T17:39:05.496Z,98960.16
2022-11-23T17:42:09.347Z,98959.00
2022-11-23T17:45:12.168Z,98967.47
2022-11-23T17:48:16.094Z,98978.47
2022-11-23T17:51:17.837Z,98979.31
2022-11-23T17:54:20.957Z,98989.09
2022-11-23T17:57:24.296Z,98987.31
2022-11-23T18:00:27.952Z,98997.88
2022-11-23T18:03:29.633Z,99006.28
2022-11-23T18:06:31.487Z,99007.56
2022-11-23T18:09:35.004Z,99014.88
2022-11-23T18:12:37.124Z,99011.34
2022-11-23T18:15:38.821Z,99021.25
2022-11-23T18:18:40.571Z,99017.63
2022-11-23T18:21:42.451Z,99027.03
2022-11-23T18:24:45.436Z,99019.19
2022-11-23T18:27:47.309Z,99026.91
2022-11-23T18:30:48.979Z,99030.66
2022-11-23T18:33:51.270Z,99026.09
2022-11-23T18:36:54.295Z,99030.94
2022-11-23T18:39:57.385Z,99034.88
2022-11-23T18:42:59.017Z,99041.41
2022-11-23T18:46:04.013Z,99045.81
2022-11-23T18:49:05.486Z,99036.53
2022-11-23T18:52:09.076Z,99039.44
2022-11-23T18:55:12.315Z,99046.88
2022-11-23T18:58:14.056Z,99045.06
2022-11-23T19:01:19.470Z,99048.97
2022-11-23T19:04:21.278Z,99054.72
2022-11-23T19:07:27.154Z,99064.66
2022-11-23T19:10:31.004Z,99071.06
2022-11-23T19:13:34.727Z,99065.06
2022-11-23T19:16:36.485Z,99075.09
2022-11-23T19:19:38.411Z,99083.22
2022-11-23T19:22:40.097Z,99099.53
2022-11-23T19:25:43.144Z,99107.38
2022-11-23T19:28:45.529Z,99112.34
2022-11-23T19:31:48.600Z,99123.84
2022-11-23T19:34:50.343Z,99131.94
2022-11-23T19:37:52.527Z,99141.09
2022-11-23T19:40:55.632Z,99141.22
2022-11-23T19:43:59.098Z,99153.63
2022-11-23T19:47:02.043Z,99166.44
2022-11-23T19:50:06.054Z,99167.47
2022-11-23T19:53:12.782Z,99168.03
2022-11-23T19:56:17.882Z,99173.34
2022-11-23T19:59:19.605Z,99185.50
2022-11-23T20:02:24.487Z,99193.59
2022-11-23T20:05:27.292Z,99203.28
2022-11-23T20:08:29.413Z,99206.78
2022-11-23T20:11:33.537Z,99220.03
2022-11-23T20:14:35.236Z,99228.25
2022-11-23T20:17:36.967Z,99236.47
2022-11-23T20:20:41.667Z,99240.94
2022-11-23T20:23:44.826Z,99258.41
2022-11-23T20:26:47.849Z,99262.63
2022-11-23T20:29:49.770Z,99258.84
2022-11-23T20:32:52.050Z,99260.25
2022-11-23T20:35:53.976Z,99272.78
2022-11-23T20:38:56.037Z,99275.44
2022-11-23T20:41:59.081Z,99274.53
2022-11-23T20:45:01.264Z,99286.97
2022-11-23T20:48:03.000Z,99288.50
2022-11-23T20:51:10.240Z,99289.50
2022-11-23T20:54:12.621Z,99297.53
2022-11-23T20:57:15.673Z,99304.19
2022-11-23T21:00:18.597Z,99314.47
2022-11-23T21:03:20.287Z,99316.94
2022-11-23T21:06:22.940Z,99321.78
2022-11-23T21:09:24.758Z,99329.59
2022-11-23T21:12:50.465Z,99330.16
2022-11-23T21:15:52.401Z,99338.78
2022-11-23T21:18:54.083Z,99351.13
2022-11-23T21:21:57.084Z,99354.72
2022-11-23T21:24:58.754Z,99357.34
2022-11-23T21:28:03.230Z,99358.03
2022-11-23T21:31:08.205Z,99359.97
2022-11-23T21:34:17.573Z,99360.41
2022-11-23T21:37:19.304Z,99368.03
2022-11-23T21:40:21.116Z,99374.97
2022-11-23T21:43:24.844Z,99373.06
2022-11-23T21:46:26.806Z,99378.38
2022-11-23T21:49:28.693Z,99385.63
2022-11-23T21:52:30.482Z,99397.25
2022-11-23T21:55:32.794Z,99401.16
2022-11-23T21:58:35.944Z,99406.13
2022-11-23T22:01:38.300Z,99424.28
2022-11-23T22:04:40.000Z,99436.97
2022-11-23T22:07:47.390Z,99435.50
2022-11-23T22:10:56.804Z,99443.41
2022-11-23T22:14:02.036Z,99454.66
2022-11-23T22:17:04.145Z,99454.50
2022-11-23T22:20:06.901Z,99451.81
2022-11-23T22:23:09.558Z,99455.84
2022-11-23T22:26:13.118Z,99446.94
2022-11-23T22:29:16.223Z,99448.91
2022-11-23T22:32:17.916Z,99453.09
2022-11-23T22:35:19.517Z,99456.22
2022-11-23T22:38:21.152Z,99457.97
2022-11-23T22:41:23.246Z,99455.53
2022-11-23T22:44:26.206Z,99467.13
2022-11-23T22:47:27.840Z,99468.56
2022-11-23T22:50:29.555Z,99477.88
2022-11-23T22:53:31.741Z,99485.28
2022-11-23T22:56:33.491Z,99486.09
2022-11-23T22:59:36.589Z,99489.34
2022-11-23T23:02:38.393Z,99498.03
2022-11-23T23:05:40.147Z,99485.75
2022-11-23T23:08:41.870Z,99484.53
2022-11-23T23:11:43.834Z,99494.34
2022-11-23T23:14:46.802Z,99495.19
2022-11-23T23:17:48.522Z,99495.59
2022-11-23T23:20:50.138Z,99496.56
2022-11-23T23:23:54.075Z,99512.78
2022-11-23T23:26:55.707Z,99512.56
2022-11-23T23:29:59.718Z,99513.06
2022-11-23T23:33:01.355Z,99514.63
2022-11-23T23:36:04.608Z,99520.75
2022-11-23T23:39:06.290Z,99524.31
2022-11-23T23:42:07.891Z,99523.81
2022-11-23T23:45:11.117Z,99525.44
2022-11-23T23:48:13.109Z,99527.94
2022-11-23T23:51:16.487Z,99535.25
2022-11-23T23:54:18.153Z,99531.03
2022-11-23T23:57:19.763Z,99538.69
